首页
METAR-TAF:

METAR-TAF

机场 :

厦门高崎国际机场

厦门, 中华人民共和国

纬度: 24-29N, 经度: 118-05E, 海拔: 139米

当前天气观测

该预报发布于28分钟前的04:00 UTC
风速4节,风向多变
温度 22°C
湿度 88%
气压 1017 hPa
能见度10公里或以上
多云层高于1100英尺
阴天层高于5000英尺

METAR: ZSAM 180400Z VRB02MPS 9999 BKN011 OVC050 22/20 Q1017 RERA BECMG TL0550 SCT011 BKN020

时间: 12:28 (04:28 UTC)

预报

该预报发布于16分钟前的04:12 UTC
预报有效从18日的 00点(UTC)到 18日的 24点(UTC)
风速8节,风向
能見度: 7000
散云层高于1100英尺
多云层高于2000英尺
短暂存在
从 18日的 00点(UTC)到 18日的 06点(UTC)
多云层高于1100英尺
多云层高于2000英尺

TAF: ZSAM 180412Z 1800/1824 08004MPS 7000 SCT011 BKN020 TX24/1806Z TN19/1821Z TEMPO 1800/1806 RA BKN011 BKN020

超过4000个机场的气象观测和天气预报(METAR&TAF报告)。

可查询的气象台以黄色和红色小点在地图上表示。

将鼠标移到小点上方,可查看气象台名称。

然后点击查看天气观测和预报。

如需切换地图:点击带黑十字的绿色按钮放大地图;点击带横线的绿色按钮缩小地图;或者点击绿色箭头查看邻近地区的地图。


METAR-TAF: